Time;durP1;ratioP1;P1;durP2;ratioP2;P2;SDS_P1;SDS_P2;PMS_P1;PMS_P2;Temp;Humidity;BMP_temperature;BMP_pressure;BME280_temperature;BME280_humidity;BME280_pressure;Samples;Min_cycle;Max_cycle;Signal;HPM_P1;HPM_P2
2022/06/08 00:00:49;;;;;;;;;;;;;;;;;;2106109;28;19927;-44
2022/06/08 00:01:50;;;;;;;;;;;;;;;;;;2106083;28;20019;-44
2022/06/08 00:02:51;;;;;;;;;;;;;;;;;;2106287;28;19920;-43
2022/06/08 00:03:51;;;;;;;;;;;;;;;;;;2106157;28;20007;-43
2022/06/08 00:04:52;;;;;;;;;;;;;;;;;;2106413;28;19920;-45
2022/06/08 00:05:53;;;;;;;;;;;;;;;;;;2106173;28;19920;-46
2022/06/08 00:06:54;;;;;;;;;;;;;;;;;;2106223;28;19920;-47
2022/06/08 00:07:55;;;;;;;;;;;;;;;;;;2105988;28;20445;-46
2022/06/08 00:08:56;;;;;;;;;;;;;;;;;;2106013;28;19928;-45
2022/06/08 00:09:58;;;;;;;;;;;;;;;;;;2105979;28;19955;-45
2022/06/08 00:10:59;;;;;;;;;;;;;;;;;;2104668;28;19930;-46
2022/06/08 00:12:00;;;;;;;;;;;;;;;;;;2097878;28;20400;-46
2022/06/08 00:13:01;;;;;;;;;;;;;;;;;;2097715;28;19928;-46
2022/06/08 00:14:02;;;;;;;;;;;;;;;;;;2097817;28;19920;-46
2022/06/08 00:15:04;;;;;;;;;;;;;;;;;;2097605;28;20396;-45
2022/06/08 00:16:05;;;;;;;;;;;;;;;;;;2097560;28;20010;-46
2022/06/08 00:17:05;;;;;;;;;;;;;;;;;;2097722;28;19927;-46
2022/06/08 00:18:06;;;;;;;;;;;;;;;;;;2097578;28;19943;-46
2022/06/08 00:19:07;;;;;;;;;;;;;;;;;;2097755;28;20349;-45
2022/06/08 00:20:08;;;;;;;;;;;;;;;;;;2097522;28;19928;-46
2022/06/08 00:21:09;;;;;;;;;;;;;;;;;;2097550;28;19924;-47
2022/06/08 00:22:11;;;;;;;;;;;;;;;;;;2098345;28;19924;-46
2022/06/08 00:23:13;;;;;;;;;;;;;;;;;;2099148;28;20003;-45
2022/06/08 00:24:14;;;;;;;;;;;;;;;;;;2099111;28;20018;-46
2022/06/08 00:25:15;;;;;;;;;;;;;;;;;;2099107;28;19924;-46
2022/06/08 00:26:16;;;;;;;;;;;;;;;;;;2099047;28;19924;-45
2022/06/08 00:27:17;;;;;;;;;;;;;;;;;;2099160;28;20405;-46
2022/06/08 00:28:18;;;;;;;;;;;;;;;;;;2099088;28;20377;-46
2022/06/08 00:29:19;;;;;;;;;;;;;;;;;;2098921;28;20436;-46
2022/06/08 00:30:20;;;;;;;;;;;;;;;;;;2098995;28;19924;-46
2022/06/08 00:31:21;;;;;;;;;;;;;;;;;;2099009;28;19958;-46
2022/06/08 00:32:21;;;;;;;;;;;;;;;;;;2098934;28;19920;-46
2022/06/08 00:33:22;;;;;;;;;;;;;;;;;;2098991;28;19921;-46
2022/06/08 00:34:23;;;;;;;;;;;;;;;;;;2099028;28;19920;-46
2022/06/08 00:35:24;;;;;;;;;;;;;;;;;;2099058;28;19927;-43
2022/06/08 00:36:25;;;;;;;;;;;;;;;;;;2099047;28;19920;-43
2022/06/08 00:37:26;;;;;;;;;;;;;;;;;;2099192;28;19994;-43
2022/06/08 00:38:27;;;;;;;;;;;;;;;;;;2099072;28;19920;-44
2022/06/08 00:39:28;;;;;;;;;;;;;;;;;;2099014;28;20391;-44
2022/06/08 00:40:28;;;;;;;;;;;;;;;;;;2099179;28;20019;-45
2022/06/08 00:41:29;;;;;;;;;;;;;;;;;;2103477;28;20008;-45
2022/06/08 00:42:30;;;;;;;;;;;;;;;;;;2107309;28;20281;-46
2022/06/08 00:43:31;;;;;;;;;;;;;;;;;;2107347;28;19967;-47
2022/06/08 00:44:32;;;;;;;;;;;;;;;;;;2107354;28;19920;-46
2022/06/08 00:45:33;;;;;;;;;;;;;;;;;;2107383;28;20015;-46
2022/06/08 00:46:34;;;;;;;;;;;;;;;;;;2107260;28;20008;-46
2022/06/08 00:47:35;;;;;;;;;;;;;;;;;;2107316;28;19966;-45
2022/06/08 00:48:36;;;;;;;;;;;;;;;;;;2107595;28;19927;-46
2022/06/08 00:49:36;;;;;;;;;;;;;;;;;;2107333;28;19955;-46
2022/06/08 00:50:37;;;;;;;;;;;;;;;;;;2107336;28;19927;-46
2022/06/08 00:51:38;;;;;;;;;;;;;;;;;;2107193;28;20101;-46
2022/06/08 00:52:39;;;;;;;;;;;;;;;;;;2107278;28;20360;-46
2022/06/08 00:53:40;;;;;;;;;;;;;;;;;;2107223;28;19927;-46
2022/06/08 00:54:41;;;;;;;;;;;;;;;;;;2107354;28;19920;-45
2022/06/08 00:55:42;;;;;;;;;;;;;;;;;;2107307;28;20018;-46
2022/06/08 00:56:43;;;;;;;;;;;;;;;;;;2107236;28;20037;-46
2022/06/08 00:57:44;;;;;;;;;;;;;;;;;;2107144;28;20311;-45
2022/06/08 00:58:45;;;;;;;;;;;;;;;;;;2107265;28;19920;-46
2022/06/08 00:59:46;;;;;;;;;;;;;;;;;;2107166;28;19973;-46
2022/06/08 01:00:47;;;;;;;;;;;;;;;;;;2107057;28;20006;-45
2022/06/08 01:01:48;;;;;;;;;;;;;;;;;;2107233;28;19923;-46
2022/06/08 01:02:49;;;;;;;;;;;;;;;;;;2107138;28;19920;-46
2022/06/08 01:03:50;;;;;;;;;;;;;;;;;;2107162;28;19930;-46
2022/06/08 01:04:51;;;;;;;;;;;;;;;;;;2107250;28;19920;-46
2022/06/08 01:05:52;;;;;;;;;;;;;;;;;;2106985;28;19919;-47
2022/06/08 01:06:52;;;;;;;;;;;;;;;;;;2107236;28;19920;-47
2022/06/08 01:07:53;;;;;;;;;;;;;;;;;;2107229;28;20270;-46
2022/06/08 01:08:54;;;;;;;;;;;;;;;;;;2107257;28;20297;-46
2022/06/08 01:09:56;;;;;;;;;;;;;;;;;;2107296;28;19926;-46
2022/06/08 01:10:57;;;;;;;;;;;;;;;;;;2106148;28;20424;-45
2022/06/08 01:11:58;;;;;;;;;;;;;;;;;;2098733;28;19969;-46
2022/06/08 01:13:04;;;;;;;;;;;;;;;;;;2098812;28;19924;-46
2022/06/08 01:14:05;;;;;;;;;;;;;;;;;;2098744;28;20482;-46
2022/06/08 01:15:06;;;;;;;;;;;;;;;;;;2098957;28;19920;-46
2022/06/08 01:16:07;;;;;;;;;;;;;;;;;;2098850;28;19920;-46
2022/06/08 01:17:07;;;;;;;;;;;;;;;;;;2098876;28;20281;-46
2022/06/08 01:18:08;;;;;;;;;;;;;;;;;;2098690;28;20444;-46
2022/06/08 01:19:10;;;;;;;;;;;;;;;;;;2098938;28;20094;-46
2022/06/08 01:20:11;;;;;;;;;;;;;;;;;;2099108;28;20307;-44
2022/06/08 01:21:12;;;;;;;;;;;;;;;;;;2098563;28;20024;-43
2022/06/08 01:22:13;;;;;;;;;;;;;;;;;;2098660;28;20450;-43
2022/06/08 01:23:14;;;;;;;;;;;;;;;;;;2098696;28;19927;-43
2022/06/08 01:24:15;;;;;;;;;;;;;;;;;;2098763;28;19920;-43
2022/06/08 01:25:16;;;;;;;;;;;;;;;;;;2098871;28;20019;-46
2022/06/08 01:26:17;;;;;;;;;;;;;;;;;;2099016;28;20341;-43
2022/06/08 01:27:18;;;;;;;;;;;;;;;;;;2098519;28;20366;-44
2022/06/08 01:28:19;;;;;;;;;;;;;;;;;;2098789;28;19927;-43
2022/06/08 01:29:20;;;;;;;;;;;;;;;;;;2098661;28;20331;-43
2022/06/08 01:30:21;;;;;;;;;;;;;;;;;;2098828;28;19920;-43
2022/06/08 01:31:22;;;;;;;;;;;;;;;;;;2098615;28;19971;-43
2022/06/08 01:32:23;;;;;;;;;;;;;;;;;;2098603;28;19963;-43
2022/06/08 01:33:24;;;;;;;;;;;;;;;;;;2098569;28;20006;-43
2022/06/08 01:34:25;;;;;;;;;;;;;;;;;;2098667;28;19955;-43
2022/06/08 01:35:26;;;;;;;;;;;;;;;;;;2098753;28;20305;-43
2022/06/08 01:36:27;;;;;;;;;;;;;;;;;;2098421;28;20011;-43
2022/06/08 01:37:28;;;;;;;;;;;;;;;;;;2101086;28;20167;-43
2022/06/08 01:38:29;;;;;;;;;;;;;;;;;;2106954;28;19923;-43
2022/06/08 01:39:29;;;;;;;;;;;;;;;;;;2107025;28;20018;-43
2022/06/08 01:40:30;;;;;;;;;;;;;;;;;;2107108;28;19923;-46
2022/06/08 01:41:31;;;;;;;;;;;;;;;;;;2106924;28;20022;-45
2022/06/08 01:42:32;;;;;;;;;;;;;;;;;;2107484;28;19959;-43
2022/06/08 01:43:33;;;;;;;;;;;;;;;;;;2107308;28;19920;-43
2022/06/08 01:44:34;;;;;;;;;;;;;;;;;;2107040;28;19999;-44
2022/06/08 01:45:37;;;;;;;;;;;;;;;;;;2107334;28;19920;-43
2022/06/08 01:46:38;;;;;;;;;;;;;;;;;;2106964;28;20006;-43
2022/06/08 01:47:39;;;;;;;;;;;;;;;;;;2107003;28;20297;-43
2022/06/08 01:49:00;;;;;;;;;;;;;;;;;;2107054;28;19920;-43
2022/06/08 01:50:01;;;;;;;;;;;;;;;;;;2106933;28;19928;-44
2022/06/08 01:51:02;;;;;;;;;;;;;;;;;;2107006;28;20283;-43
2022/06/08 01:52:02;;;;;;;;;;;;;;;;;;2106755;28;20022;-43
2022/06/08 01:53:03;;;;;;;;;;;;;;;;;;2106908;28;20448;-44
2022/06/08 01:54:04;;;;;;;;;;;;;;;;;;2106938;28;19923;-44
2022/06/08 01:55:05;;;;;;;;;;;;;;;;;;2106843;28;19994;-45
2022/06/08 01:56:06;;;;;;;;;;;;;;;;;;2106829;28;20089;-44
2022/06/08 01:57:07;;;;;;;;;;;;;;;;;;2106735;28;19982;-44
2022/06/08 01:58:08;;;;;;;;;;;;;;;;;;2106964;28;20023;-43
2022/06/08 01:59:09;;;;;;;;;;;;;;;;;;2107012;28;19977;-47
2022/06/08 02:00:10;;;;;;;;;;;;;;;;;;2106963;28;19951;-46
2022/06/08 02:01:11;;;;;;;;;;;;;;;;;;2106616;28;19920;-45
2022/06/08 02:02:12;;;;;;;;;;;;;;;;;;2107050;28;19920;-43
2022/06/08 02:03:13;;;;;;;;;;;;;;;;;;2106869;28;19927;-43
2022/06/08 02:04:14;;;;;;;;;;;;;;;;;;2106914;28;19959;-44
2022/06/08 02:05:15;;;;;;;;;;;;;;;;;;2107115;28;20007;-44
2022/06/08 02:06:16;;;;;;;;;;;;;;;;;;2106742;28;20028;-43
2022/06/08 02:07:17;;;;;;;;;;;;;;;;;;2106626;28;19924;-44
2022/06/08 02:08:18;;;;;;;;;;;;;;;;;;2106811;28;19920;-43
2022/06/08 02:09:19;;;;;;;;;;;;;;;;;;2106784;28;20361;-44
2022/06/08 02:10:20;;;;;;;;;;;;;;;;;;2106694;28;19963;-43
2022/06/08 02:11:21;;;;;;;;;;;;;;;;;;2102419;28;19921;-43
2022/06/08 02:12:22;;;;;;;;;;;;;;;;;;2098590;28;20015;-45
2022/06/08 02:13:23;;;;;;;;;;;;;;;;;;2098518;28;19974;-47
2022/06/08 02:14:23;;;;;;;;;;;;;;;;;;2098465;28;19974;-47
2022/06/08 02:15:24;;;;;;;;;;;;;;;;;;2098600;28;20015;-46
2022/06/08 02:16:25;;;;;;;;;;;;;;;;;;2098435;28;20361;-46
2022/06/08 02:17:26;;;;;;;;;;;;;;;;;;2098373;28;20011;-46
2022/06/08 02:18:27;;;;;;;;;;;;;;;;;;2098558;28;20460;-43
2022/06/08 02:19:28;;;;;;;;;;;;;;;;;;2098250;28;19927;-43
2022/06/08 02:20:29;;;;;;;;;;;;;;;;;;2098637;28;20050;-43
2022/06/08 02:21:30;;;;;;;;;;;;;;;;;;2098337;28;19928;-43
2022/06/08 02:22:31;;;;;;;;;;;;;;;;;;2098597;28;20277;-43
2022/06/08 02:23:31;;;;;;;;;;;;;;;;;;2098366;28;19920;-43
2022/06/08 02:24:32;;;;;;;;;;;;;;;;;;2098480;28;19921;-43
2022/06/08 02:25:33;;;;;;;;;;;;;;;;;;2098359;28;19924;-43
2022/06/08 02:26:34;;;;;;;;;;;;;;;;;;2098210;28;19921;-43
2022/06/08 02:27:35;;;;;;;;;;;;;;;;;;2098315;28;19924;-43
2022/06/08 02:28:36;;;;;;;;;;;;;;;;;;2098201;28;20351;-43
2022/06/08 02:29:37;;;;;;;;;;;;;;;;;;2098433;28;19958;-43
2022/06/08 02:30:37;;;;;;;;;;;;;;;;;;2098288;28;19920;-43
2022/06/08 02:31:38;;;;;;;;;;;;;;;;;;2098342;28;19920;-46
2022/06/08 02:35:18;;;;;;;;;;;;;;;;;;2106565;28;19920;-46
2022/06/08 02:36:19;;;;;;;;;;;;;;;;;;2106872;28;19920;-45
2022/06/08 02:37:19;;;;;;;;;;;;;;;;;;2106568;28;20164;-45
2022/06/08 02:38:21;;;;;;;;;;;;;;;;;;2106536;28;19923;-46
2022/06/08 02:39:21;;;;;;;;;;;;;;;;;;2106866;28;19919;-43
2022/06/08 02:40:22;;;;;;;;;;;;;;;;;;2106642;28;19920;-43
2022/06/08 02:41:23;;;;;;;;;;;;;;;;;;2106509;28;20406;-43
2022/06/08 02:42:24;;;;;;;;;;;;;;;;;;2106561;28;19941;-43
2022/06/08 02:43:25;;;;;;;;;;;;;;;;;;2106521;28;20065;-43
2022/06/08 02:44:26;;;;;;;;;;;;;;;;;;2106448;28;19973;-43
2022/06/08 02:45:26;;;;;;;;;;;;;;;;;;2106313;28;19920;-43
2022/06/08 02:46:27;;;;;;;;;;;;;;;;;;2106592;28;20050;-46
2022/06/08 02:47:30;;;;;;;;;;;;;;;;;;2106629;28;19920;-43
2022/06/08 02:48:32;;;;;;;;;;;;;;;;;;2106669;28;19920;-47
2022/06/08 02:49:33;;;;;;;;;;;;;;;;;;2106535;28;20014;-46
2022/06/08 02:50:34;;;;;;;;;;;;;;;;;;2106473;28;19934;-46
2022/06/08 02:51:34;;;;;;;;;;;;;;;;;;2106559;28;20565;-46
2022/06/08 02:52:36;;;;;;;;;;;;;;;;;;2106515;28;19974;-46
2022/06/08 02:53:36;;;;;;;;;;;;;;;;;;2106702;28;20296;-43
2022/06/08 02:54:38;;;;;;;;;;;;;;;;;;2106491;28;19959;-43
2022/06/08 02:55:39;;;;;;;;;;;;;;;;;;2106574;28;20009;-46
2022/06/08 02:56:40;;;;;;;;;;;;;;;;;;2106734;28;20011;-43
2022/06/08 02:57:41;;;;;;;;;;;;;;;;;;2106613;28;20407;-43
2022/06/08 02:58:42;;;;;;;;;;;;;;;;;;2106529;28;19920;-43
2022/06/08 02:59:43;;;;;;;;;;;;;;;;;;2106474;28;19959;-43
2022/06/08 03:00:45;;;;;;;;;;;;;;;;;;2106417;28;19971;-43
2022/06/08 03:01:45;;;;;;;;;;;;;;;;;;2106332;28;19920;-43
2022/06/08 03:02:46;;;;;;;;;;;;;;;;;;2106625;28;19969;-46
2022/06/08 03:03:47;;;;;;;;;;;;;;;;;;2106397;28;19920;-46
2022/06/08 03:04:49;;;;;;;;;;;;;;;;;;2106509;28;19947;-47
2022/06/08 03:05:50;;;;;;;;;;;;;;;;;;2106694;28;19920;-46
2022/06/08 03:06:51;;;;;;;;;;;;;;;;;;2106791;28;19963;-46
2022/06/08 03:07:53;;;;;;;;;;;;;;;;;;2106561;28;20006;-43
2022/06/08 03:08:53;;;;;;;;;;;;;;;;;;2106815;28;19926;-43
2022/06/08 03:09:54;;;;;;;;;;;;;;;;;;2106361;28;19920;-43
2022/06/08 03:10:55;;;;;;;;;;;;;;;;;;2105896;28;19927;-44
2022/06/08 03:11:56;;;;;;;;;;;;;;;;;;2098530;28;20269;-46
2022/06/08 03:12:57;;;;;;;;;;;;;;;;;;2098042;28;19924;-46
2022/06/08 03:13:59;;;;;;;;;;;;;;;;;;2098199;28;19980;-46
2022/06/08 03:15:00;;;;;;;;;;;;;;;;;;2098081;28;20011;-46
2022/06/08 03:16:00;;;;;;;;;;;;;;;;;;2098058;28;20011;-46
2022/06/08 03:17:01;;;;;;;;;;;;;;;;;;2097985;28;19920;-46
2022/06/08 03:18:02;;;;;;;;;;;;;;;;;;2098019;28;19924;-46
2022/06/08 03:19:04;;;;;;;;;;;;;;;;;;2098227;28;19920;-44
2022/06/08 03:20:04;;;;;;;;;;;;;;;;;;2097976;28;20035;-43
2022/06/08 03:21:06;;;;;;;;;;;;;;;;;;2098097;28;19924;-43
2022/06/08 03:22:07;;;;;;;;;;;;;;;;;;2098337;28;20006;-46
2022/06/08 03:23:08;;;;;;;;;;;;;;;;;;2097866;28;20405;-47
2022/06/08 03:24:09;;;;;;;;;;;;;;;;;;2098263;28;19921;-47
2022/06/08 03:25:10;;;;;;;;;;;;;;;;;;2098118;28;20010;-47
2022/06/08 03:26:11;;;;;;;;;;;;;;;;;;2098150;28;19920;-46
2022/06/08 03:27:12;;;;;;;;;;;;;;;;;;2098143;28;19920;-44
2022/06/08 03:28:14;;;;;;;;;;;;;;;;;;2097958;28;20129;-43
2022/06/08 03:29:15;;;;;;;;;;;;;;;;;;2098014;28;20027;-46
2022/06/08 03:30:16;;;;;;;;;;;;;;;;;;2102752;28;19924;-47
2022/06/08 03:31:17;;;;;;;;;;;;;;;;;;2106187;28;20061;-46
2022/06/08 03:32:18;;;;;;;;;;;;;;;;;;2106380;28;20289;-43
2022/06/08 03:33:19;;;;;;;;;;;;;;;;;;2106217;28;19920;-44
2022/06/08 03:34:20;;;;;;;;;;;;;;;;;;2106540;28;20125;-47
2022/06/08 03:35:21;;;;;;;;;;;;;;;;;;2106463;28;19924;-44
2022/06/08 03:36:22;;;;;;;;;;;;;;;;;;2106531;28;20015;-43
2022/06/08 03:37:23;;;;;;;;;;;;;;;;;;2106317;28;19927;-45
2022/06/08 03:38:24;;;;;;;;;;;;;;;;;;2106122;28;19963;-43
2022/06/08 03:39:25;;;;;;;;;;;;;;;;;;2106351;28;19920;-44
2022/06/08 03:40:27;;;;;;;;;;;;;;;;;;2106182;28;20425;-44
2022/06/08 03:41:28;;;;;;;;;;;;;;;;;;2106437;28;20010;-43
2022/06/08 03:42:29;;;;;;;;;;;;;;;;;;2106339;28;19920;-43
2022/06/08 03:43:30;;;;;;;;;;;;;;;;;;2106297;28;19999;-43
2022/06/08 03:44:31;;;;;;;;;;;;;;;;;;2106249;28;19920;-43
2022/06/08 03:45:32;;;;;;;;;;;;;;;;;;2106180;28;19946;-43
2022/06/08 03:46:33;;;;;;;;;;;;;;;;;;2106018;28;19959;-43
2022/06/08 03:47:34;;;;;;;;;;;;;;;;;;2106085;28;20377;-43
2022/06/08 03:48:35;;;;;;;;;;;;;;;;;;2106305;28;20003;-44
2022/06/08 03:49:36;;;;;;;;;;;;;;;;;;2106153;28;19926;-43
2022/06/08 03:50:36;;;;;;;;;;;;;;;;;;2106165;28;19943;-44
2022/06/08 03:51:37;;;;;;;;;;;;;;;;;;2106355;28;19920;-46
2022/06/08 03:52:38;;;;;;;;;;;;;;;;;;2106265;28;20341;-46
2022/06/08 03:53:39;;;;;;;;;;;;;;;;;;2106381;28;19920;-44
2022/06/08 03:54:40;;;;;;;;;;;;;;;;;;2106121;28;20456;-43
2022/06/08 03:55:41;;;;;;;;;;;;;;;;;;2106206;28;19963;-43
2022/06/08 03:56:41;;;;;;;;;;;;;;;;;;2106032;28;20025;-44
2022/06/08 03:57:45;;;;;;;;;;;;;;;;;;2107599;28;19920;-43
2022/06/08 03:58:45;;;;;;;;;;;;;;;;;;2107749;28;19920;-45
2022/06/08 03:59:47;;;;;;;;;;;;;;;;;;2107549;28;19920;-44
2022/06/08 04:00:47;;;;;;;;;;;;;;;;;;2107448;28;19931;-43
2022/06/08 04:01:48;;;;;;;;;;;;;;;;;;2107742;28;19989;-44
2022/06/08 04:02:49;;;;;;;;;;;;;;;;;;2107801;28;19920;-44
2022/06/08 04:03:52;;;;;;;;;;;;;;;;;;2107531;28;20057;-43
2022/06/08 04:04:53;;;;;;;;;;;;;;;;;;2107593;28;20010;-44
2022/06/08 04:05:54;;;;;;;;;;;;;;;;;;2107571;28;19993;-43
2022/06/08 04:06:54;;;;;;;;;;;;;;;;;;2108118;28;20058;-47
2022/06/08 04:07:55;;;;;;;;;;;;;;;;;;2107506;28;20422;-46
2022/06/08 04:08:56;;;;;;;;;;;;;;;;;;2107720;28;20319;-44
2022/06/08 04:09:57;;;;;;;;;;;;;;;;;;2107464;28;19924;-44
2022/06/08 04:10:58;;;;;;;;;;;;;;;;;;2106542;28;19935;-43
2022/06/08 04:11:59;;;;;;;;;;;;;;;;;;2099101;28;19928;-43
2022/06/08 04:13:00;;;;;;;;;;;;;;;;;;2099165;28;19920;-44
2022/06/08 04:14:01;;;;;;;;;;;;;;;;;;2099161;28;19924;-43
2022/06/08 04:15:01;;;;;;;;;;;;;;;;;;2099091;28;19920;-44
2022/06/08 04:16:03;;;;;;;;;;;;;;;;;;2099335;28;20010;-46
2022/06/08 04:17:04;;;;;;;;;;;;;;;;;;2099134;28;19928;-46
2022/06/08 04:18:05;;;;;;;;;;;;;;;;;;2099324;28;20016;-44
2022/06/08 04:19:05;;;;;;;;;;;;;;;;;;2099138;28;19921;-45
2022/06/08 04:20:06;;;;;;;;;;;;;;;;;;2099269;28;20362;-43
2022/06/08 04:21:08;;;;;;;;;;;;;;;;;;2099034;28;20015;-43
2022/06/08 04:22:09;;;;;;;;;;;;;;;;;;2099451;28;19921;-46
2022/06/08 04:23:10;;;;;;;;;;;;;;;;;;2099079;28;19962;-46
2022/06/08 04:24:11;;;;;;;;;;;;;;;;;;2099265;28;20027;-48
2022/06/08 04:25:14;;;;;;;;;;;;;;;;;;2099200;28;20436;-46
2022/06/08 04:26:15;;;;;;;;;;;;;;;;;;2101416;28;20006;-47
2022/06/08 04:27:16;;;;;;;;;;;;;;;;;;2107429;28;20389;-47
2022/06/08 04:28:17;;;;;;;;;;;;;;;;;;2107747;28;19966;-47
2022/06/08 04:29:18;;;;;;;;;;;;;;;;;;2107444;28;20487;-47
2022/06/08 04:30:19;;;;;;;;;;;;;;;;;;2107514;28;20006;-49
2022/06/08 04:31:20;;;;;;;;;;;;;;;;;;2107556;28;20202;-44
2022/06/08 04:32:21;;;;;;;;;;;;;;;;;;2107382;28;19967;-44
2022/06/08 04:33:22;;;;;;;;;;;;;;;;;;2107435;28;19955;-44
2022/06/08 04:34:23;;;;;;;;;;;;;;;;;;2107601;28;19962;-43
2022/06/08 04:35:25;;;;;;;;;;;;;;;;;;2107718;28;19920;-47
2022/06/08 04:36:26;;;;;;;;;;;;;;;;;;2107727;28;20010;-45
2022/06/08 04:37:27;;;;;;;;;;;;;;;;;;2107525;28;20006;-44
2022/06/08 04:38:28;;;;;;;;;;;;;;;;;;2107806;28;19924;-46
2022/06/08 04:39:29;;;;;;;;;;;;;;;;;;2107669;28;20014;-46
2022/06/08 04:40:30;;;;;;;;;;;;;;;;;;2107550;28;19999;-46
2022/06/08 04:41:32;;;;;;;;;;;;;;;;;;2107439;28;19962;-46
2022/06/08 04:42:32;;;;;;;;;;;;;;;;;;2107375;28;20011;-46
2022/06/08 04:43:33;;;;;;;;;;;;;;;;;;2107298;28;19927;-46
2022/06/08 04:44:34;;;;;;;;;;;;;;;;;;2107576;28;19920;-46
2022/06/08 04:45:36;;;;;;;;;;;;;;;;;;2107278;28;19927;-44
2022/06/08 04:46:37;;;;;;;;;;;;;;;;;;2107327;28;20035;-43
2022/06/08 04:47:38;;;;;;;;;;;;;;;;;;2107233;28;20304;-43
2022/06/08 04:48:39;;;;;;;;;;;;;;;;;;2107537;28;19956;-44
2022/06/08 04:49:41;;;;;;;;;;;;;;;;;;2107350;28;19970;-44
2022/06/08 04:50:42;;;;;;;;;;;;;;;;;;2107398;28;19928;-43
2022/06/08 04:51:42;;;;;;;;;;;;;;;;;;2107636;28;20201;-47
2022/06/08 04:52:43;;;;;;;;;;;;;;;;;;2107254;28;19920;-47
2022/06/08 04:53:44;;;;;;;;;;;;;;;;;;2107284;28;19927;-47
2022/06/08 04:54:45;;;;;;;;;;;;;;;;;;2107403;28;20045;-44
2022/06/08 04:55:46;;;;;;;;;;;;;;;;;;2107273;28;19951;-43
2022/06/08 04:56:47;;;;;;;;;;;;;;;;;;2107664;28;20421;-43
2022/06/08 04:57:48;;;;;;;;;;;;;;;;;;2107233;28;20006;-44
2022/06/08 04:58:49;;;;;;;;;;;;;;;;;;2107388;28;20015;-44
2022/06/08 04:59:50;;;;;;;;;;;;;;;;;;2107595;28;20384;-46
2022/06/08 05:00:55;;;;;;;;;;;;;;;;;;2107127;28;20007;-46
2022/06/08 05:01:56;;;;;;;;;;;;;;;;;;2107261;28;20499;-46
2022/06/08 05:02:57;;;;;;;;;;;;;;;;;;2107382;28;19926;-47
2022/06/08 05:03:58;;;;;;;;;;;;;;;;;;2107112;28;20288;-46
2022/06/08 05:04:59;;;;;;;;;;;;;;;;;;2107332;28;20023;-47
2022/06/08 05:06:00;;;;;;;;;;;;;;;;;;2107178;28;19930;-46
2022/06/08 05:07:00;;;;;;;;;;;;;;;;;;2107263;28;20018;-47
2022/06/08 05:08:02;;;;;;;;;;;;;;;;;;2106646;28;20018;-46
2022/06/08 05:09:04;;;;;;;;;;;;;;;;;;2107315;28;20019;-46
2022/06/08 05:10:04;;;;;;;;;;;;;;;;;;2107274;28;19999;-44
2022/06/08 05:11:05;;;;;;;;;;;;;;;;;;2105109;28;19973;-45
2022/06/08 05:12:06;;;;;;;;;;;;;;;;;;2098765;28;19921;-44
2022/06/08 05:13:07;;;;;;;;;;;;;;;;;;2098818;28;19951;-44
2022/06/08 05:14:08;;;;;;;;;;;;;;;;;;2098791;28;20277;-44
2022/06/08 05:15:09;;;;;;;;;;;;;;;;;;2099004;28;19927;-47
2022/06/08 05:16:10;;;;;;;;;;;;;;;;;;2098650;28;19935;-47
2022/06/08 05:17:11;;;;;;;;;;;;;;;;;;2098711;28;20381;-46
2022/06/08 05:18:11;;;;;;;;;;;;;;;;;;2098894;28;19975;-47
2022/06/08 05:19:12;;;;;;;;;;;;;;;;;;2098687;28;19982;-46
2022/06/08 05:20:14;;;;;;;;;;;;;;;;;;2099044;28;19927;-47
2022/06/08 05:21:15;;;;;;;;;;;;;;;;;;2098604;28;20349;-44
2022/06/08 05:22:16;;;;;;;;;;;;;;;;;;2099288;28;19974;-42
2022/06/08 05:23:17;;;;;;;;;;;;;;;;;;2099029;28;19973;-44
2022/06/08 05:24:18;;;;;;;;;;;;;;;;;;2099161;28;19983;-47
2022/06/08 05:25:19;;;;;;;;;;;;;;;;;;2098771;28;19928;-47
2022/06/08 05:26:20;;;;;;;;;;;;;;;;;;2098610;28;19920;-47
2022/06/08 05:27:20;;;;;;;;;;;;;;;;;;2098910;28;19990;-43
2022/06/08 05:28:21;;;;;;;;;;;;;;;;;;2098773;28;19924;-45
2022/06/08 05:29:22;;;;;;;;;;;;;;;;;;2099240;28;19978;-43
2022/06/08 05:30:25;;;;;;;;;;;;;;;;;;2098734;28;20403;-44
2022/06/08 05:31:25;;;;;;;;;;;;;;;;;;2098617;28;20007;-43
2022/06/08 05:32:27;;;;;;;;;;;;;;;;;;2098668;28;20349;-43
2022/06/08 05:33:27;;;;;;;;;;;;;;;;;;2099008;28;20019;-44
2022/06/08 05:34:28;;;;;;;;;;;;;;;;;;2098901;28;19921;-46
2022/06/08 05:35:29;;;;;;;;;;;;;;;;;;2098633;28;19968;-46
2022/06/08 05:36:30;;;;;;;;;;;;;;;;;;2098815;28;20258;-46
2022/06/08 05:37:31;;;;;;;;;;;;;;;;;;2098752;28;19931;-47
2022/06/08 05:38:32;;;;;;;;;;;;;;;;;;2098695;28;19928;-45
2022/06/08 05:39:33;;;;;;;;;;;;;;;;;;2098569;28;20356;-47
2022/06/08 05:40:36;;;;;;;;;;;;;;;;;;2098629;28;19927;-46
2022/06/08 05:41:37;;;;;;;;;;;;;;;;;;2098537;28;20019;-46
2022/06/08 05:42:38;;;;;;;;;;;;;;;;;;2098829;28;19959;-46
2022/06/08 05:43:39;;;;;;;;;;;;;;;;;;2098556;28;20384;-46
2022/06/08 05:44:40;;;;;;;;;;;;;;;;;;2098736;28;19927;-45
2022/06/08 05:45:42;;;;;;;;;;;;;;;;;;2099269;28;19975;-43
2022/06/08 05:46:43;;;;;;;;;;;;;;;;;;2098365;28;19927;-43
2022/06/08 05:47:43;;;;;;;;;;;;;;;;;;2098596;28;19928;-44
2022/06/08 05:48:49;;;;;;;;;;;;;;;;;;2098610;28;20003;-44
2022/06/08 05:49:50;;;;;;;;;;;;;;;;;;2098677;28;19946;-44
2022/06/08 05:50:51;;;;;;;;;;;;;;;;;;2098728;28;19924;-46
2022/06/08 05:51:51;;;;;;;;;;;;;;;;;;2098667;28;20070;-46
2022/06/08 05:52:52;;;;;;;;;;;;;;;;;;2098561;28;20352;-46
2022/06/08 05:53:53;;;;;;;;;;;;;;;;;;2098576;28;20031;-48
2022/06/08 05:54:54;;;;;;;;;;;;;;;;;;2098636;28;19927;-46
2022/06/08 05:55:55;;;;;;;;;;;;;;;;;;2098568;28;20363;-43
2022/06/08 05:56:56;;;;;;;;;;;;;;;;;;2098505;28;19920;-43
2022/06/08 05:57:57;;;;;;;;;;;;;;;;;;2098651;28;19938;-46
2022/06/08 05:58:58;;;;;;;;;;;;;;;;;;2098622;28;20026;-43
2022/06/08 05:59:58;;;;;;;;;;;;;;;;;;2098489;28;19920;-45
2022/06/08 06:01:00;;;;;;;;;;;;;;;;;;2098579;28;19924;-43
2022/06/08 06:02:01;;;;;;;;;;;;;;;;;;2098369;28;20413;-47
2022/06/08 06:03:02;;;;;;;;;;;;;;;;;;2098872;28;19936;-45
2022/06/08 06:04:09;;;;;;;;;;;;;;;;;;2098473;28;19920;-46
2022/06/08 06:05:09;;;;;;;;;;;;;;;;;;2098725;28;19973;-45
2022/06/08 06:06:10;;;;;;;;;;;;;;;;;;2098655;28;19920;-42
2022/06/08 06:07:12;;;;;;;;;;;;;;;;;;2098553;28;20014;-44
2022/06/08 06:08:12;;;;;;;;;;;;;;;;;;2098279;28;20011;-44
2022/06/08 06:09:13;;;;;;;;;;;;;;;;;;2098389;28;20011;-43
2022/06/08 06:10:14;;;;;;;;;;;;;;;;;;2098385;28;19966;-42
2022/06/08 06:11:15;;;;;;;;;;;;;;;;;;2101282;28;19926;-43
2022/06/08 06:12:16;;;;;;;;;;;;;;;;;;2107131;28;20149;-45
2022/06/08 06:13:18;;;;;;;;;;;;;;;;;;2107001;28;20011;-48
2022/06/08 06:14:19;;;;;;;;;;;;;;;;;;2106820;28;20447;-45
2022/06/08 06:15:20;;;;;;;;;;;;;;;;;;2107224;28;19951;-46
2022/06/08 06:16:21;;;;;;;;;;;;;;;;;;2106708;28;20061;-46
2022/06/08 06:17:22;;;;;;;;;;;;;;;;;;2106811;28;19923;-42
2022/06/08 06:18:23;;;;;;;;;;;;;;;;;;2107057;28;20451;-46
2022/06/08 06:19:24;;;;;;;;;;;;;;;;;;2105962;28;19999;-43
2022/06/08 06:20:25;;;;;;;;;;;;;;;;;;2106604;28;19975;-44
2022/06/08 06:21:25;;;;;;;;;;;;;;;;;;2106780;28;20034;-42
2022/06/08 06:22:26;;;;;;;;;;;;;;;;;;2106780;28;19946;-45
2022/06/08 06:23:27;;;;;;;;;;;;;;;;;;2107086;28;19924;-45
2022/06/08 06:24:29;;;;;;;;;;;;;;;;;;2106980;28;20391;-46
2022/06/08 06:25:30;;;;;;;;;;;;;;;;;;2106828;28;20316;-45
2022/06/08 06:26:30;;;;;;;;;;;;;;;;;;2106780;28;20333;-46
2022/06/08 06:27:31;;;;;;;;;;;;;;;;;;2106734;28;19924;-46
2022/06/08 06:28:32;;;;;;;;;;;;;;;;;;2106532;28;19920;-47
2022/06/08 06:29:33;;;;;;;;;;;;;;;;;;2106902;28;19920;-42
2022/06/08 06:30:34;;;;;;;;;;;;;;;;;;2106899;28;19970;-46
2022/06/08 06:31:35;;;;;;;;;;;;;;;;;;2106738;28;19920;-46
2022/06/08 06:32:36;;;;;;;;;;;;;;;;;;2106672;28;19920;-45
2022/06/08 06:33:37;;;;;;;;;;;;;;;;;;2106611;28;19920;-45
2022/06/08 06:34:38;;;;;;;;;;;;;;;;;;2106594;28;19927;-44
2022/06/08 06:35:40;;;;;;;;;;;;;;;;;;2106739;28;19928;-43
2022/06/08 06:36:41;;;;;;;;;;;;;;;;;;2106681;28;20011;-44
2022/06/08 06:37:42;;;;;;;;;;;;;;;;;;2107011;28;20014;-46
2022/06/08 06:38:43;;;;;;;;;;;;;;;;;;2106785;28;19920;-43
2022/06/08 06:39:44;;;;;;;;;;;;;;;;;;2106701;28;19949;-42
2022/06/08 06:40:45;;;;;;;;;;;;;;;;;;2106621;28;19955;-43
2022/06/08 06:41:46;;;;;;;;;;;;;;;;;;2106450;28;20372;-44
2022/06/08 06:42:47;;;;;;;;;;;;;;;;;;2106752;28;19920;-44
2022/06/08 06:43:48;;;;;;;;;;;;;;;;;;2106756;28;20062;-46
2022/06/08 06:44:49;;;;;;;;;;;;;;;;;;2106850;28;20368;-44
2022/06/08 06:45:50;;;;;;;;;;;;;;;;;;2106559;28;19963;-43
2022/06/08 06:46:50;;;;;;;;;;;;;;;;;;2106892;28;20431;-42
2022/06/08 06:47:51;;;;;;;;;;;;;;;;;;2106647;28;19931;-46
2022/06/08 06:48:53;;;;;;;;;;;;;;;;;;2106507;28;19947;-46
2022/06/08 06:49:53;;;;;;;;;;;;;;;;;;2106506;28;20023;-46
2022/06/08 06:50:55;;;;;;;;;;;;;;;;;;2106983;28;19920;-43
2022/06/08 06:51:57;;;;;;;;;;;;;;;;;;2106555;28;19920;-43
2022/06/08 06:52:59;;;;;;;;;;;;;;;;;;2106809;28;19998;-45
2022/06/08 06:54:05;;;;;;;;;;;;;;;;;;2106891;28;20311;-46
2022/06/08 06:55:06;;;;;;;;;;;;;;;;;;2106808;28;19920;-46
2022/06/08 06:56:08;;;;;;;;;;;;;;;;;;2106429;28;19920;-46
2022/06/08 06:57:09;;;;;;;;;;;;;;;;;;2106771;28;19933;-42
2022/06/08 06:58:10;;;;;;;;;;;;;;;;;;2106864;28;20386;-42
2022/06/08 06:59:11;;;;;;;;;;;;;;;;;;2106621;28;19920;-43
2022/06/08 07:00:12;;;;;;;;;;;;;;;;;;2106734;28;19923;-44